Time;durP1;ratioP1;P1;durP2;ratioP2;P2;SDS_P1;SDS_P2;PMS_P1;PMS_P2;Temp;Humidity;BMP_temperature;BMP_pressure;BME280_temperature;BME280_humidity;BME280_pressure;Samples;Min_cycle;Max_cycle;Signal;HPM_P1;HPM_P2
2023/07/19 00:01:54;;;;;;;6.40;3.00;;;16.30;99.90;;;;;;5032358;28;20553;-63
2023/07/19 00:04:20;;;;;;;5.28;3.00;;;16.30;99.90;;;;;;5032163;28;20053;-63
2023/07/19 00:06:46;;;;;;;5.35;2.72;;;16.30;1.00;;;;;;5032540;28;20428;-63
2023/07/19 00:09:12;;;;;;;6.13;2.78;;;16.30;1.00;;;;;;5032568;28;20112;-63
2023/07/19 00:11:37;;;;;;;6.68;2.80;;;16.30;1.00;;;;;;5032555;28;20049;-64
2023/07/19 00:14:05;;;;;;;4.05;2.83;;;16.30;1.00;;;;;;5032567;28;20037;-63
2023/07/19 00:16:32;;;;;;;3.53;2.25;;;16.30;1.00;;;;;;5032272;28;20045;-63
2023/07/19 00:18:57;;;;;;;4.68;3.22;;;16.30;1.00;;;;;;5032142;28;20038;-63
2023/07/19 00:21:23;;;;;;;6.18;2.90;;;16.30;1.00;;;;;;5032164;28;20042;-63
2023/07/19 00:23:49;;;;;;;4.20;3.13;;;16.30;1.00;;;;;;5031177;28;20080;-63
2023/07/19 00:26:14;;;;;;;4.65;2.85;;;16.30;1.00;;;;;;5032185;28;20037;-64
2023/07/19 00:28:40;;;;;;;3.40;2.63;;;16.20;1.00;;;;;;5032340;28;20037;-63
2023/07/19 00:31:05;;;;;;;4.60;2.50;;;16.40;1.00;;;;;;5032305;28;20485;-63
2023/07/19 00:33:31;;;;;;;4.55;2.40;;;16.30;1.00;;;;;;5030970;28;20052;-63
2023/07/19 00:35:57;;;;;;;4.15;2.60;;;16.80;1.00;;;;;;5032385;28;20491;-63
2023/07/19 00:38:22;;;;;;;4.25;2.75;;;16.30;1.00;;;;;;5032363;28;20056;-63
2023/07/19 00:40:51;;;;;;;5.75;2.72;;;16.30;1.00;;;;;;5032055;28;20041;-63
2023/07/19 00:43:17;;;;;;;4.47;2.80;;;16.30;1.00;;;;;;5032183;28;20041;-63
2023/07/19 00:45:54;;;;;;;4.82;2.35;;;16.30;1.00;;;;;;5030799;28;20137;-63
2023/07/19 00:48:20;;;;;;;4.18;2.33;;;16.30;1.00;;;;;;5030688;28;20092;-63
2023/07/19 00:50:48;;;;;;;5.47;2.60;;;16.30;1.00;;;;;;5032314;28;20046;-63
2023/07/19 00:53:14;;;;;;;4.30;2.28;;;16.20;1.00;;;;;;5032214;28;20052;-63
2023/07/19 00:55:40;;;;;;;3.60;2.60;;;16.20;1.00;;;;;;5033601;28;20041;-63
2023/07/19 00:58:06;;;;;;;6.03;2.60;;;16.20;1.00;;;;;;5034538;28;20048;-63
2023/07/19 01:00:32;;;;;;;4.50;2.88;;;16.30;1.00;;;;;;5035688;28;20034;-63
2023/07/19 01:02:59;;;;;;;5.15;2.53;;;16.20;1.00;;;;;;5035685;28;20045;-63
2023/07/19 01:05:24;;;;;;;3.72;2.42;;;16.40;1.00;;;;;;5035296;28;20069;-63
2023/07/19 01:07:51;;;;;;;4.78;2.88;;;16.30;1.00;;;;;;5035252;28;20168;-63
2023/07/19 01:10:16;;;;;;;5.03;2.95;;;16.30;1.00;;;;;;5035598;28;20519;-63
2023/07/19 01:12:42;;;;;;;5.03;2.88;;;16.20;1.00;;;;;;5035553;28;20042;-63
2023/07/19 01:15:09;;;;;;;4.38;2.80;;;16.20;1.00;;;;;;5035153;28;20555;-64
2023/07/19 01:17:38;;;;;;;5.18;3.00;;;16.30;1.00;;;;;;5050676;28;20100;-64
2023/07/19 01:20:06;;;;;;;5.68;2.75;;;16.20;1.00;;;;;;5035407;28;20044;-64
2023/07/19 01:22:32;;;;;;;4.13;2.78;;;16.20;1.00;;;;;;5035060;28;20052;-64
2023/07/19 01:24:59;;;;;;;4.00;2.65;;;16.70;1.00;;;;;;5034115;28;20053;-64
2023/07/19 01:27:24;;;;;;;3.88;2.58;;;16.30;1.00;;;;;;5033573;28;20402;-63
2023/07/19 01:29:50;;;;;;;4.57;2.80;;;16.30;1.00;;;;;;5033977;28;20048;-63
2023/07/19 01:32:17;;;;;;;6.78;2.65;;;16.30;1.00;;;;;;5035117;28;20496;-63
2023/07/19 01:34:42;;;;;;;5.93;2.65;;;16.30;1.00;;;;;;5035183;28;20033;-63
2023/07/19 01:37:08;;;;;;;4.38;2.65;;;16.20;1.00;;;;;;5035070;28;20041;-63
2023/07/19 01:39:34;;;;;;;4.90;2.63;;;16.20;1.00;;;;;;5035042;28;20045;-64
2023/07/19 01:41:59;;;;;;;5.28;2.63;;;16.20;1.00;;;;;;5034993;28;20044;-63
2023/07/19 01:44:26;;;;;;;3.45;2.47;;;16.30;1.00;;;;;;5034926;28;20044;-64
2023/07/19 01:46:51;;;;;;;4.38;3.03;;;16.20;1.80;;;;;;5033350;28;20128;-63
2023/07/19 01:49:17;;;;;;;5.50;2.47;;;16.20;1.90;;;;;;5034840;28;20468;-63
2023/07/19 01:51:42;;;;;;;7.03;2.50;;;16.30;1.00;;;;;;5034360;28;20037;-63
2023/07/19 01:54:08;;;;;;;5.90;2.92;;;16.30;7.00;;;;;;5034429;28;20048;-63
2023/07/19 01:56:33;;;;;;;6.32;2.33;;;16.20;5.60;;;;;;5034694;28;20083;-63
2023/07/19 01:58:59;;;;;;;9.18;3.17;;;16.20;1.00;;;;;;5034425;28;20041;-64
2023/07/19 02:01:25;;;;;;;3.97;2.35;;;16.20;2.70;;;;;;5034546;28;20524;-63
2023/07/19 02:03:50;;;;;;;7.18;2.50;;;16.20;1.00;;;;;;5034433;28;20068;-63
2023/07/19 02:06:16;;;;;;;5.20;2.25;;;16.20;13.30;;;;;;5032529;28;20048;-63
2023/07/19 02:08:41;;;;;;;4.22;2.42;;;16.20;9.00;;;;;;5033580;28;20497;-63
2023/07/19 02:11:07;;;;;;;5.82;2.53;;;16.20;11.80;;;;;;5034406;28;20037;-63
2023/07/19 02:13:32;;;;;;;2.97;2.05;;;16.30;15.00;;;;;;5034009;28;20038;-63
2023/07/19 02:15:58;;;;;;;5.25;2.78;;;16.20;18.00;;;;;;5034328;28;20038;-63
2023/07/19 02:18:24;;;;;;;3.85;2.58;;;16.20;13.00;;;;;;5034263;28;20053;-63
2023/07/19 02:20:53;;;;;;;3.88;2.40;;;16.30;10.00;;;;;;5034305;28;20061;-64
2023/07/19 02:23:19;;;;;;;3.83;2.42;;;16.20;13.70;;;;;;5034157;28;20098;-63
2023/07/19 02:25:48;;;;;;;12.10;2.80;;;16.20;18.10;;;;;;5034134;28;20428;-64
2023/07/19 02:28:14;;;;;;;6.13;2.70;;;16.20;22.70;;;;;;5033709;28;20045;-63
2023/07/19 02:30:44;;;;;;;5.45;2.83;;;16.20;20.70;;;;;;5033854;28;20039;-63
2023/07/19 02:33:13;;;;;;;6.72;3.00;;;16.20;21.20;;;;;;5033722;28;20041;-63
2023/07/19 02:35:40;;;;;;;5.93;2.90;;;16.20;22.00;;;;;;5033939;28;20392;-63
2023/07/19 02:38:06;;;;;;;5.35;2.40;;;16.20;23.80;;;;;;5033707;28;20072;-63
2023/07/19 02:40:31;;;;;;;3.50;2.08;;;16.20;23.80;;;;;;5033593;28;20083;-63
2023/07/19 02:42:57;;;;;;;4.03;2.55;;;16.20;23.20;;;;;;5033728;28;20133;-64
2023/07/19 02:45:24;;;;;;;4.95;2.67;;;16.20;28.00;;;;;;5033821;28;20101;-63
2023/07/19 02:47:50;;;;;;;5.40;2.75;;;16.20;33.60;;;;;;5032137;28;20041;-64
2023/07/19 02:50:19;;;;;;;4.93;2.88;;;16.20;37.40;;;;;;5033444;28;20041;-63
2023/07/19 02:52:45;;;;;;;4.90;2.20;;;16.20;39.90;;;;;;5033646;28;20045;-63
2023/07/19 02:55:10;;;;;;;3.65;2.30;;;16.20;42.40;;;;;;5033596;28;20041;-63
2023/07/19 02:57:36;;;;;;;4.93;2.60;;;16.10;44.90;;;;;;5033523;28;20038;-63
2023/07/19 03:00:02;;;;;;;6.57;2.70;;;16.10;44.40;;;;;;5033521;28;20044;-63
2023/07/19 03:02:28;;;;;;;6.72;3.17;;;16.10;46.40;;;;;;5033434;28;20099;-63
2023/07/19 03:04:55;;;;;;;9.32;3.03;;;16.10;47.90;;;;;;5033172;28;20528;-63
2023/07/19 03:07:21;;;;;;;8.15;3.20;;;16.10;53.90;;;;;;5033348;28;20512;-63
2023/07/19 03:09:47;;;;;;;3.42;2.65;;;16.10;53.80;;;;;;5033335;28;20112;-63
2023/07/19 03:12:13;;;;;;;4.30;2.85;;;16.00;56.00;;;;;;5032937;28;20107;-63
2023/07/19 03:14:39;;;;;;;6.07;3.13;;;16.00;53.90;;;;;;5033291;28;20042;-63
2023/07/19 03:17:04;;;;;;;5.50;3.15;;;16.00;56.90;;;;;;5033249;28;20412;-63
2023/07/19 03:19:30;;;;;;;7.70;3.00;;;16.00;55.90;;;;;;5033077;28;20037;-63
2023/07/19 03:21:55;;;;;;;4.72;2.67;;;17.00;59.30;;;;;;5048622;28;20472;-64
2023/07/19 03:24:21;;;;;;;7.63;3.17;;;16.00;58.40;;;;;;5033149;28;20124;-63
2023/07/19 03:26:47;;;;;;;5.95;2.83;;;16.00;58.70;;;;;;5032985;28;20041;-63
2023/07/19 03:29:13;;;;;;;8.65;3.40;;;16.00;60.70;;;;;;5031531;28;20072;-63
2023/07/19 03:31:38;;;;;;;6.78;3.22;;;16.50;60.80;;;;;;5033043;28;20436;-65
2023/07/19 03:34:04;;;;;;;5.18;3.17;;;16.10;61.10;;;;;;5032974;28;20037;-63
2023/07/19 03:36:30;;;;;;;4.75;3.00;;;15.90;62.60;;;;;;5032944;28;20116;-63
2023/07/19 03:38:55;;;;;;;4.82;3.15;;;15.90;63.80;;;;;;5014979;28;20046;-63
2023/07/19 03:41:21;;;;;;;5.10;3.22;;;15.90;66.00;;;;;;5032861;28;20477;-63
2023/07/19 03:43:46;;;;;;;4.07;2.90;;;16.00;71.30;;;;;;5032910;28;20037;-63
2023/07/19 03:46:12;;;;;;;4.90;3.20;;;15.90;71.20;;;;;;5032911;28;20037;-63
2023/07/19 03:48:37;;;;;;;5.68;2.88;;;15.90;70.60;;;;;;5032705;28;20037;-63
2023/07/19 03:51:03;;;;;;;4.75;3.08;;;15.90;74.60;;;;;;5032859;28;20084;-63
2023/07/19 03:53:29;;;;;;;6.85;3.35;;;15.90;74.00;;;;;;5032785;28;20037;-63
2023/07/19 03:55:56;;;;;;;4.80;3.40;;;15.90;73.20;;;;;;5032876;28;20060;-63
2023/07/19 03:58:25;;;;;;;6.20;3.38;;;15.90;73.00;;;;;;5032784;28;20051;-63
2023/07/19 04:00:55;;;;;;;4.65;3.00;;;15.90;74.10;;;;;;5032781;28;20048;-66
2023/07/19 04:03:21;;;;;;;4.33;3.53;;;16.00;73.80;;;;;;5032455;28;20368;-63
2023/07/19 04:05:47;;;;;;;4.28;2.83;;;15.90;75.90;;;;;;5032304;28;20049;-63
2023/07/19 04:08:16;;;;;;;7.90;3.97;;;15.90;74.80;;;;;;5032575;28;20034;-64
2023/07/19 04:10:42;;;;;;;5.82;3.67;;;15.90;76.10;;;;;;5032720;28;20033;-63
2023/07/19 04:13:10;;;;;;;6.38;3.88;;;16.10;79.60;;;;;;5047926;28;20037;-63
2023/07/19 04:15:36;;;;;;;7.75;3.58;;;15.90;78.40;;;;;;5031077;28;20044;-63
2023/07/19 04:18:01;;;;;;;5.80;3.35;;;16.00;79.50;;;;;;5031268;28;20124;-63
2023/07/19 04:20:28;;;;;;;5.80;3.85;;;15.90;79.10;;;;;;5032540;28;20507;-64
2023/07/19 04:22:54;;;;;;;3.75;3.03;;;16.00;78.80;;;;;;5032585;28;20045;-63
2023/07/19 04:25:20;;;;;;;7.80;3.60;;;15.90;78.80;;;;;;5031019;28;20049;-64
2023/07/19 04:27:46;;;;;;;6.22;3.83;;;16.00;78.60;;;;;;5032410;28;20396;-63
2023/07/19 04:30:13;;;;;;;4.53;3.47;;;16.00;79.30;;;;;;5033235;28;20029;-63
2023/07/19 04:32:38;;;;;;;9.18;4.00;;;16.00;79.60;;;;;;5035983;28;20091;-63
2023/07/19 04:35:06;;;;;;;7.82;3.40;;;16.00;79.50;;;;;;5035968;28;20041;-63
2023/07/19 04:37:32;;;;;;;7.25;3.90;;;16.00;79.90;;;;;;5035966;28;20131;-63
2023/07/19 04:39:58;;;;;;;8.43;3.80;;;16.00;82.30;;;;;;5036167;28;20405;-63
2023/07/19 04:42:24;;;;;;;7.53;4.00;;;16.70;82.30;;;;;;5036043;28;20432;-64
2023/07/19 04:44:50;;;;;;;5.03;3.25;;;16.10;82.20;;;;;;5036082;28;20045;-63
2023/07/19 04:47:16;;;;;;;8.02;4.07;;;16.10;83.50;;;;;;5035987;28;20507;-63
2023/07/19 04:49:42;;;;;;;6.63;4.00;;;16.20;83.40;;;;;;5036034;28;20037;-63
2023/07/19 04:52:08;;;;;;;6.00;4.32;;;16.10;83.10;;;;;;5035599;28;20041;-63
2023/07/19 04:54:34;;;;;;;4.80;3.72;;;16.20;83.10;;;;;;5035887;28;20127;-63
2023/07/19 04:56:59;;;;;;;6.68;4.13;;;16.30;81.60;;;;;;5034253;28;20045;-63
2023/07/19 04:59:25;;;;;;;7.93;4.22;;;16.30;82.40;;;;;;5035713;28;20052;-63
2023/07/19 05:01:51;;;;;;;5.38;4.10;;;16.40;81.00;;;;;;5035794;28;20046;-63
2023/07/19 05:04:16;;;;;;;8.95;4.60;;;16.30;79.70;;;;;;5035156;28;20092;-66
2023/07/19 05:06:42;;;;;;;8.07;4.20;;;17.30;79.90;;;;;;5034107;28;20057;-63
2023/07/19 05:09:09;;;;;;;5.68;3.95;;;16.50;79.40;;;;;;5034058;28;20037;-63
2023/07/19 05:11:35;;;;;;;8.15;4.45;;;16.50;79.20;;;;;;5035551;28;20049;-63
2023/07/19 05:14:01;;;;;;;5.97;4.25;;;16.50;77.60;;;;;;5033928;28;20037;-63
2023/07/19 05:16:26;;;;;;;6.75;3.80;;;16.50;76.60;;;;;;5035480;28;20125;-63
2023/07/19 05:18:52;;;;;;;9.48;4.55;;;17.00;77.20;;;;;;5035446;28;20033;-62
2023/07/19 05:21:18;;;;;;;6.10;4.35;;;16.40;76.80;;;;;;5035045;28;20154;-63
2023/07/19 05:23:44;;;;;;;7.30;4.55;;;16.60;78.70;;;;;;5035321;28;20033;-63
2023/07/19 05:26:10;;;;;;;4.97;3.67;;;16.60;77.40;;;;;;5035281;28;20045;-63
2023/07/19 05:28:36;;;;;;;7.15;4.38;;;16.60;78.10;;;;;;5034902;28;20038;-63
2023/07/19 05:31:05;;;;;;;6.90;4.30;;;16.60;78.40;;;;;;5034985;28;20477;-64
2023/07/19 05:33:32;;;;;;;6.97;4.32;;;16.60;79.00;;;;;;5035105;28;20389;-64
2023/07/19 05:35:58;;;;;;;8.80;4.90;;;16.60;79.10;;;;;;5033824;28;20107;-63
2023/07/19 05:38:24;;;;;;;8.50;4.88;;;17.00;80.30;;;;;;5035173;28;20432;-63
2023/07/19 05:40:49;;;;;;;9.00;4.38;;;16.50;79.40;;;;;;5034913;28;20041;-63
2023/07/19 05:43:15;;;;;;;9.10;4.00;;;16.60;80.90;;;;;;5034968;28;20033;-63
2023/07/19 05:45:41;;;;;;;5.97;4.32;;;16.30;80.00;;;;;;5034674;28;20041;-63
2023/07/19 05:48:06;;;;;;;6.25;3.95;;;16.60;80.00;;;;;;5034911;28;20091;-63
2023/07/19 05:50:32;;;;;;;6.30;4.68;;;16.60;78.90;;;;;;5034866;28;20048;-64
2023/07/19 05:52:58;;;;;;;8.48;4.45;;;16.60;78.50;;;;;;5034485;28;20041;-63
2023/07/19 05:55:24;;;;;;;8.18;3.75;;;17.40;77.00;;;;;;5034877;28;20080;-64
2023/07/19 05:57:50;;;;;;;8.95;4.97;;;16.70;77.30;;;;;;5034839;28;20040;-64
2023/07/19 06:00:24;;;;;;;7.63;4.10;;;16.70;77.50;;;;;;5034809;28;20489;-64
2023/07/19 06:02:53;;;;;;;6.85;4.47;;;16.70;75.80;;;;;;5034759;28;20073;-70
2023/07/19 06:05:19;;;;;;;8.57;4.28;;;16.70;75.20;;;;;;5032925;28;20053;-70
2023/07/19 06:07:47;;;;;;;6.68;3.95;;;16.70;74.50;;;;;;5033104;28;20517;-63
2023/07/19 06:10:13;;;;;;;7.78;4.00;;;16.80;72.80;;;;;;5034510;28;20037;-65
2023/07/19 06:12:42;;;;;;;6.05;4.05;;;16.80;72.10;;;;;;5034199;28;20048;-66
2023/07/19 06:15:08;;;;;;;6.55;4.00;;;17.00;71.70;;;;;;5034203;28;20120;-63
2023/07/19 06:17:33;;;;;;;6.55;3.45;;;16.90;70.70;;;;;;5034199;28;20080;-64
2023/07/19 06:19:59;;;;;;;5.60;3.70;;;16.90;70.00;;;;;;5034320;28;20045;-66
2023/07/19 06:22:25;;;;;;;7.63;4.10;;;17.00;71.70;;;;;;5034303;28;20045;-66
2023/07/19 06:24:51;;;;;;;6.82;4.00;;;17.00;68.70;;;;;;5034000;28;20037;-66
2023/07/19 06:27:16;;;;;;;6.60;3.45;;;17.00;66.50;;;;;;5034178;28;20044;-66
2023/07/19 06:29:43;;;;;;;6.07;3.10;;;17.00;64.80;;;;;;5032751;28;20099;-67
2023/07/19 06:32:09;;;;;;;5.63;3.70;;;17.00;64.00;;;;;;5034144;28;20402;-66
2023/07/19 06:34:34;;;;;;;9.65;3.60;;;17.00;60.60;;;;;;5034131;28;20118;-67
2023/07/19 06:37:01;;;;;;;6.60;4.13;;;16.90;55.00;;;;;;5033678;28;20083;-67
2023/07/19 06:39:28;;;;;;;5.55;3.55;;;17.00;53.00;;;;;;5033943;28;20045;-70
2023/07/19 06:41:54;;;;;;;7.20;3.42;;;17.00;51.00;;;;;;5032743;28;20048;-67
2023/07/19 06:44:19;;;;;;;4.82;3.42;;;17.00;46.20;;;;;;5033881;28;20557;-65
2023/07/19 06:46:45;;;;;;;7.32;3.17;;;16.80;42.10;;;;;;5033796;28;20099;-63
2023/07/19 06:49:11;;;;;;;5.47;3.58;;;17.00;40.00;;;;;;5033723;28;20076;-63
2023/07/19 06:51:36;;;;;;;6.55;3.03;;;17.10;34.10;;;;;;5032361;28;20080;-63
2023/07/19 06:54:02;;;;;;;5.00;2.85;;;17.10;28.50;;;;;;5033186;28;20046;-63
2023/07/19 06:56:28;;;;;;;4.72;2.75;;;17.10;21.60;;;;;;5033710;28;20077;-63
2023/07/19 06:58:54;;;;;;;6.97;3.05;;;16.80;11.30;;;;;;5033674;28;20044;-64
2023/07/19 07:01:19;;;;;;;5.75;3.20;;;17.10;8.10;;;;;;5031609;28;20570;-64
2023/07/19 07:03:45;;;;;;;5.60;2.75;;;17.10;1.00;;;;;;5033412;28;20116;-64
2023/07/19 07:06:11;;;;;;;4.47;2.45;;;17.10;1.00;;;;;;5032477;28;20505;-64
2023/07/19 07:08:36;;;;;;;4.10;2.88;;;17.10;1.00;;;;;;5032691;28;20049;-63
2023/07/19 07:11:04;;;;;;;6.68;2.80;;;17.80;1.00;;;;;;5032752;28;20409;-64
2023/07/19 07:13:30;;;;;;;6.38;2.70;;;17.20;1.00;;;;;;5032361;28;20052;-64
2023/07/19 07:15:58;;;;;;;4.15;2.80;;;17.10;1.00;;;;;;5032671;28;20033;-64
2023/07/19 07:18:23;;;;;;;4.82;2.45;;;17.20;1.00;;;;;;5032596;28;20041;-64
2023/07/19 07:20:52;;;;;;;6.05;2.42;;;17.10;99.90;;;;;;5032582;28;20481;-64
2023/07/19 07:23:18;;;;;;;4.65;2.38;;;17.20;99.90;;;;;;5032520;28;20481;-67
2023/07/19 07:25:44;;;;;;;7.57;2.97;;;17.20;99.90;;;;;;5030937;28;20045;-64
2023/07/19 07:28:10;;;;;;;5.00;2.40;;;17.20;99.90;;;;;;5032082;28;20056;-65
2023/07/19 07:30:36;;;;;;;4.22;2.08;;;17.30;99.90;;;;;;5032213;28;20048;-65
2023/07/19 07:33:06;;;;;;;5.63;2.20;;;17.70;99.90;;;;;;5032516;28;20079;-65
2023/07/19 07:35:31;;;;;;;4.68;2.20;;;17.50;99.90;;;;;;5031109;28;20056;-62
2023/07/19 07:37:58;;;;;;;5.45;2.55;;;17.50;67.00;;;;;;5032262;28;20041;-62
2023/07/19 07:40:23;;;;;;;4.63;2.08;;;17.70;99.90;;;;;;5031012;28;20037;-65
2023/07/19 07:42:49;;;;;;;3.67;2.10;;;17.70;1.00;;;;;;5032226;28;20056;-62
2023/07/19 07:45:14;;;;;;;3.28;1.73;;;17.70;99.90;;;;;;5031929;28;20127;-62
2023/07/19 07:47:40;;;;;;;4.32;2.00;;;17.80;99.90;;;;;;5032029;28;20041;-62
2023/07/19 07:50:08;;;;;;;3.55;1.75;;;17.60;22.40;;;;;;5030682;28;20045;-63
2023/07/19 07:52:34;;;;;;;2.58;1.85;;;17.80;99.90;;;;;;5032134;28;20492;-62
2023/07/19 07:55:00;;;;;;;6.38;2.35;;;17.80;81.80;;;;;;5031874;28;20060;-62
2023/07/19 07:57:26;;;;;;;4.03;2.38;;;17.90;99.90;;;;;;5032110;28;20033;-63
2023/07/19 07:59:51;;;;;;;5.50;2.17;;;17.80;4.70;;;;;;5031737;28;20113;-62
2023/07/19 08:02:17;;;;;;;5.88;2.40;;;17.90;99.90;;;;;;5030419;28;20046;-63
2023/07/19 08:04:43;;;;;;;4.80;2.00;;;18.00;99.90;;;;;;4994533;28;1073128;-65
2023/07/19 08:07:08;;;;;;;4.50;2.38;;;18.00;99.90;;;;;;5036768;28;20045;-65
2023/07/19 08:09:34;;;;;;;5.20;2.47;;;18.10;99.90;;;;;;5036766;28;20033;-65
2023/07/19 08:12:00;;;;;;;4.18;2.33;;;18.10;91.30;;;;;;5036847;28;20037;-62
2023/07/19 08:14:25;;;;;;;4.35;2.00;;;18.20;1.00;;;;;;5036489;28;20041;-62
2023/07/19 08:16:53;;;;;;;5.47;2.13;;;18.20;99.90;;;;;;5036735;28;20121;-64
2023/07/19 08:19:19;;;;;;;4.82;2.03;;;18.20;99.90;;;;;;5036614;28;20420;-63
2023/07/19 08:21:44;;;;;;;4.28;2.30;;;18.40;99.90;;;;;;5036644;28;20045;-63
2023/07/19 08:24:11;;;;;;;4.60;2.40;;;18.60;99.90;;;;;;5036233;28;20045;-63
2023/07/19 08:26:37;;;;;;;5.03;1.90;;;18.50;1.00;;;;;;5035179;28;20060;-64
2023/07/19 08:29:03;;;;;;;3.38;1.63;;;18.70;99.90;;;;;;5036435;28;20595;-63
2023/07/19 08:31:28;;;;;;;3.25;1.90;;;18.90;99.90;;;;;;5036414;28;20033;-63
2023/07/19 08:33:54;;;;;;;3.60;1.70;;;18.80;99.90;;;;;;5036301;28;20080;-63
2023/07/19 08:36:19;;;;;;;6.72;2.00;;;18.90;99.90;;;;;;5034826;28;20133;-64
2023/07/19 08:38:46;;;;;;;3.78;1.90;;;18.90;99.90;;;;;;5036061;28;20528;-64
2023/07/19 08:41:14;;;;;;;3.88;1.45;;;18.60;99.90;;;;;;5036098;28;20051;-64
2023/07/19 08:43:41;;;;;;;2.72;1.55;;;18.40;99.90;;;;;;5035979;28;20095;-63
2023/07/19 08:46:13;;;;;;;3.58;1.70;;;18.70;99.90;;;;;;5035862;28;20045;-63
2023/07/19 08:48:38;;;;;;;2.60;1.42;;;18.70;99.90;;;;;;5036032;28;20042;-64
2023/07/19 08:51:06;;;;;;;3.05;1.58;;;19.30;99.90;;;;;;5036024;28;20040;-63
2023/07/19 08:53:31;;;;;;;2.78;1.42;;;18.40;99.90;;;;;;5036065;28;20424;-64
2023/07/19 08:55:57;;;;;;;3.80;1.52;;;18.50;99.90;;;;;;5035689;28;20041;-63
2023/07/19 08:58:23;;;;;;;3.35;1.27;;;18.30;15.00;;;;;;5035932;28;20046;-63
2023/07/19 09:00:49;;;;;;;3.00;1.20;;;18.40;16.50;;;;;;5035594;28;20041;-63
2023/07/19 09:03:16;;;;;;;4.85;1.83;;;17.10;2.40;;;;;;5035757;28;20049;-63
2023/07/19 09:05:44;;;;;;;5.35;1.45;;;18.70;1.00;;;;;;5035363;28;20136;-64
2023/07/19 09:08:11;;;;;;;2.83;1.10;;;19.00;99.90;;;;;;5035688;28;20477;-63
2023/07/19 09:10:37;;;;;;;2.63;1.15;;;18.70;99.90;;;;;;5035390;28;20033;-64
2023/07/19 09:13:06;;;;;;;4.75;1.35;;;18.70;99.90;;;;;;5035679;28;20037;-66
2023/07/19 09:15:35;;;;;;;2.75;1.00;;;18.90;99.90;;;;;;5035441;28;20103;-64
2023/07/19 09:18:04;;;;;;;1.73;0.93;;;18.60;99.90;;;;;;5035213;28;20080;-64
2023/07/19 09:20:29;;;;;;;1.40;0.90;;;18.60;99.90;;;;;;5035501;28;20072;-64
2023/07/19 09:22:57;;;;;;;2.80;1.00;;;18.90;99.90;;;;;;5035506;28;20080;-67
2023/07/19 09:25:23;;;;;;;2.80;1.05;;;19.00;99.90;;;;;;5033912;28;20049;-64
2023/07/19 09:27:51;;;;;;;3.80;1.02;;;18.40;99.90;;;;;;5035340;28;20128;-64
2023/07/19 09:30:17;;;;;;;2.08;0.93;;;18.40;99.90;;;;;;5033894;28;20118;-63
2023/07/19 09:32:42;;;;;;;2.20;1.05;;;18.60;99.90;;;;;;5034992;28;20076;-64
2023/07/19 09:35:09;;;;;;;3.75;1.30;;;18.70;99.90;;;;;;5035259;28;20041;-63
2023/07/19 09:37:35;;;;;;;1.45;0.65;;;18.90;99.90;;;;;;5035166;28;20090;-64
2023/07/19 09:40:03;;;;;;;5.05;0.90;;;19.30;99.90;;;;;;5033658;28;20444;-63
2023/07/19 09:42:30;;;;;;;3.88;1.00;;;19.10;99.90;;;;;;5035108;28;20088;-63
2023/07/19 09:44:56;;;;;;;2.00;1.20;;;;;;;;;;5034751;28;20124;-63
2023/07/19 09:47:24;;;;;;;2.55;1.17;;;19.30;99.90;;;;;;5034891;28;20366;-64
2023/07/19 09:49:50;;;;;;;3.08;1.17;;;19.30;99.90;;;;;;5034645;28;20038;-64
2023/07/19 09:52:18;;;;;;;3.33;0.90;;;19.60;99.90;;;;;;5034944;28;20388;-64
2023/07/19 09:54:44;;;;;;;1.50;1.02;;;19.40;99.90;;;;;;5034966;28;20033;-64
2023/07/19 09:57:10;;;;;;;2.28;1.00;;;19.50;99.90;;;;;;5034581;28;20041;-64
2023/07/19 09:59:45;;;;;;;3.28;1.45;;;19.70;99.90;;;;;;5033553;28;20423;-64
2023/07/19 10:02:12;;;;;;;4.13;1.10;;;19.70;99.90;;;;;;5034607;28;20064;-64
2023/07/19 10:04:39;;;;;;;4.25;1.45;;;;;;;;;;5034191;28;20053;-69
2023/07/19 10:07:20;;;;;;;6.25;1.50;;;19.80;99.90;;;;;;5032844;28;20061;-67
2023/07/19 10:09:46;;;;;;;;;;;20.00;99.90;;;;;;5034643;28;20099;-64
2023/07/19 10:12:17;;;;;;;5.20;1.20;;;20.00;99.90;;;;;;5034484;28;20329;-64
2023/07/19 10:15:03;;;;;;;4.72;1.40;;;20.00;99.90;;;;;;5034501;28;20389;-64
2023/07/19 10:17:42;;;;;;;1.75;0.93;;;20.30;99.90;;;;;;5034254;28;20504;-64
2023/07/19 10:20:15;;;;;;;4.22;1.38;;;20.30;99.90;;;;;;5034436;28;20108;-64
2023/07/19 10:22:50;;;;;;;1.50;1.00;;;;;;;;;;5034361;28;20378;-64
2023/07/19 10:25:24;;;;;;;4.07;1.33;;;20.60;99.90;;;;;;5034317;28;20492;-64
2023/07/19 10:27:58;;;;;;;1.67;1.00;;;21.00;1.00;;;;;;5033415;28;20405;-64
2023/07/19 10:30:42;;;;;;;4.15;1.25;;;21.00;99.90;;;;;;5034259;28;20473;-64
2023/07/19 10:33:08;;;;;;;2.58;1.15;;;20.90;99.90;;;;;;5034263;28;20087;-64
2023/07/19 10:35:34;;;;;;;3.42;1.60;;;20.60;99.90;;;;;;5032536;28;20132;-64
2023/07/19 10:38:00;;;;;;;2.90;0.95;;;20.40;99.90;;;;;;5034009;28;20087;-64
2023/07/19 10:40:26;;;;;;;5.75;1.30;;;;;;;;;;5033726;28;20046;-64
2023/07/19 10:42:52;;;;;;;5.38;1.10;;;;;;;;;;5033759;28;20124;-64
2023/07/19 10:45:18;;;;;;;3.20;1.30;;;;;;;;;;5033910;28;20073;-64
2023/07/19 10:47:44;;;;;;;4.32;1.20;;;;;;;;;;5033593;28;20496;-64
2023/07/19 10:50:10;;;;;;;2.75;1.38;;;;;;;;;;5033732;28;20040;-64
2023/07/19 10:52:36;;;;;;;1.38;0.98;;;;;;;;;;5033819;28;20041;-63
2023/07/19 10:55:02;;;;;;;2.88;1.38;;;;;;;;;;5033519;28;20547;-64
2023/07/19 10:57:28;;;;;;;2.60;0.95;;;;;;;;;;5033753;28;20038;-63
2023/07/19 10:59:54;;;;;;;2.88;1.35;;;;;;;;;;5033719;28;20401;-64
2023/07/19 11:02:21;;;;;;;3.65;1.38;;;;;;;;;;5033556;28;20119;-63
2023/07/19 11:04:48;;;;;;;7.05;1.80;;;;;;;;;;5048523;28;20515;-63
2023/07/19 11:07:14;;;;;;;5.07;1.30;;;;;;;;;;5033394;28;20052;-64
2023/07/19 11:09:43;;;;;;;3.45;1.30;;;;;;;;;;5033588;28;20038;-64
2023/07/19 11:12:12;;;;;;;3.35;1.73;;;;;;;;;;5033126;28;20033;-64
2023/07/19 11:14:42;;;;;;;4.07;1.33;;;;;;;;;;5033383;28;20034;-64
2023/07/19 11:17:09;;;;;;;;;;;;;;;;;;5033528;28;20110;-64
2023/07/19 11:19:36;;;;;;;2.25;1.38;;;;;;;;;;5033051;28;19920;-64
2023/07/19 11:22:02;;;;;;;6.00;1.20;;;;;;;;;;5033331;28;20069;-64
2023/07/19 11:24:38;;;;;;;3.55;1.20;;;;;;;;;;5015397;28;20049;-63
2023/07/19 11:27:06;;;;;;;3.40;1.40;;;;;;;;;;5033171;28;20441;-64
2023/07/19 11:29:32;;;;;;;3.30;1.17;;;;;;;;;;5033247;28;20037;-63
2023/07/19 11:32:16;;;;;;;2.42;1.10;;;;;;;;;;5033182;28;20046;-64
2023/07/19 11:34:56;;;;;;;2.70;1.38;;;;;;;;;;5031709;28;20073;-63
2023/07/19 11:37:24;;;;;;;2.50;1.15;;;;;;;;;;5032990;28;20163;-64
2023/07/19 11:39:51;;;;;;;2.38;1.05;;;20.40;99.90;;;;;;5031732;28;20401;-64
2023/07/19 11:42:39;;;;;;;1.85;1.02;;;21.20;99.90;;;;;;5032807;28;20052;-63
2023/07/19 11:45:16;;;;;;;2.83;1.27;;;20.20;99.90;;;;;;5032912;28;20091;-64
2023/07/19 11:47:43;;;;;;;1.55;0.90;;;20.00;5.70;;;;;;5032904;28;20103;-64
2023/07/19 11:50:10;;;;;;;2.05;1.17;;;20.10;5.20;;;;;;5031670;28;20483;-64
2023/07/19 11:53:11;;;;;;;5.28;0.93;;;;;;;;;;5032868;28;20044;-64
2023/07/19 11:55:37;;;;;;;1.58;0.75;;;;;;;;;;4971639;28;20406;-64
2023/07/19 11:58:03;;;;;;;2.92;0.85;;;;;;;;;;5020411;28;20053;-64
2023/07/19 12:00:32;;;;;;;1.70;1.00;;;;;;;;;;5032730;28;20053;-63
2023/07/19 12:02:58;;;;;;;3.67;0.85;;;;;;;;;;5033097;28;20075;-64
2023/07/19 12:05:25;;;;;;;3.92;1.08;;;;;;;;;;5032402;28;20061;-67
2023/07/19 12:07:52;;;;;;;3.03;0.90;;;;;;;;;;5032741;28;20060;-64
2023/07/19 12:10:19;;;;;;;2.22;0.95;;;;;;;;;;5032758;28;20091;-64
2023/07/19 12:12:47;;;;;;;1.27;0.82;;;;;;;;;;5032436;28;20049;-63
2023/07/19 12:15:13;;;;;;;3.08;1.00;;;;;;;;;;5032624;28;20059;-64
2023/07/19 12:17:39;;;;;;;2.80;1.10;;;;;;;;;;5032645;28;20404;-64
2023/07/19 12:20:06;;;;;;;3.85;1.20;;;;;;;;;;5032290;28;20128;-64
2023/07/19 12:22:33;;;;;;;6.72;1.58;;;;;;;;;;5032368;28;20041;-64
2023/07/19 12:24:59;;;;;;;2.83;1.20;;;;;;;;;;5032687;28;20037;-64
2023/07/19 12:27:26;;;;;;;4.15;1.63;;;;;;;;;;5032468;28;20041;-64
2023/07/19 12:29:52;;;;;;;2.83;1.30;;;;;;;;;;5032606;28;20041;-64
2023/07/19 12:32:18;;;;;;;3.03;1.35;;;;;;;;;;5032556;28;20063;-64
2023/07/19 12:34:45;;;;;;;4.07;1.52;;;;;;;;;;5032604;28;20045;-67
2023/07/19 12:37:12;;;;;;;5.93;1.63;;;;;;;;;;5032487;28;20172;-65
2023/07/19 12:39:38;;;;;;;4.05;1.60;;;;;;;;;;5032513;28;20044;-64
2023/07/19 12:42:04;;;;;;;6.50;2.13;;;;;;;;;;5032517;28;20120;-64
2023/07/19 12:44:31;;;;;;;4.88;1.70;;;;;;;;;;5032426;28;20037;-64
2023/07/19 12:46:57;;;;;;;3.47;1.60;;;;;;;;;;5032121;28;20092;-64
2023/07/19 12:49:23;;;;;;;3.85;2.05;;;;;;;;;;5032325;28;20041;-64
2023/07/19 12:51:49;;;;;;;3.10;1.60;;;;;;;;;;5034038;28;20449;-64
2023/07/19 12:54:15;;;;;;;5.30;1.63;;;19.70;99.90;;;;;;5035885;28;20361;-64
2023/07/19 12:56:41;;;;;;;2.03;1.10;;;20.30;1.00;;;;;;5035894;28;20117;-64
2023/07/19 12:59:07;;;;;;;5.18;1.92;;;19.70;99.90;;;;;;5035815;28;20080;-64
2023/07/19 13:01:34;;;;;;;3.35;1.88;;;20.30;1.00;;;;;;5035451;28;20045;-64
2023/07/19 13:04:00;;;;;;;3.67;1.38;;;19.80;1.00;;;;;;5034364;28;20073;-64